Flight Briefing for CPX656

Departure Arrival
Key West International Airport (KEYW)
Click to view FAA NOTAMS
The Florida Keys Marathon International Airport (KMTH)
Click to view FAA NOTAMS
Departure Time Arrival Time
N/A N/A
Aircraft Distance
SF340AF 40nm
Departure METAR Arrival METAR
KEYW 250253Z 08011KT 10SM CLR 26/18 A3007 RMK AO2 SLP183 T02560183 53015 KMTH 250253Z AUTO 07012KT 10SM CLR 28/18 A3006 RMK AO2 SLP179 T02780178 53009
Suggested Route
VPKOE


View recent IFR Routes data
Notes



Charts and Procedures

Charts for KEYW
No chart available
Charts for KMTH
No chart available

Windy.com Weather Map